| time (UTC) | temp C | wind direction | speed KPH | gust KPH | rain 1hr cm | rain 24hr cm | rain mn cm | humidity % | barometer mb |
| 20260906131523 | 27 | 96 | 0.0 | 6.4 | 0.00 | 0.00 | 0.00 | 82 | 1013.4 |
| 20260906130026 | 26 | 100 | 0.0 | 9.7 | 0.00 | 0.00 | 0.00 | 84 | 1013.5 |
| 20260906124521 | 26 | 95 | 1.6 | 8.0 | 0.00 | 0.00 | 0.00 | 85 | 1013.4 |
| 20260906123026 | 26 | 110 | 6.4 | 17.7 | 0.00 | 0.00 | 0.00 | 87 | 1013.3 |
| 20260906121523 | 25 | 231 | 0.0 | 0.0 | 0.00 | 0.00 | 0.00 | 90 | 1012.9 |
| 20260906120019 | 25 | 231 | 0.0 | 0.0 | 0.00 | 0.00 | 0.00 | 91 | 1012.7 |
| 20260906114521 | 25 | 231 | 0.0 | 0.0 | 0.00 | 0.00 | 0.00 | 91 | 1012.7 |
| 20260906113020 | 25 | 231 | 0.0 | 0.0 | 0.00 | 0.00 | 0.00 | 90 | 1012.5 |
| 20260906111518 | 25 | 231 | 0.0 | 0.0 | 0.00 | 0.00 | 0.00 | 90 | 1012.3 |
| 20260906110021 | 25 | 231 | 0.0 | 0.0 | 0.00 | 0.00 | 0.00 | 89 | 1012.2 |
| 20260906104520 | 25 | 231 | 0.0 | 0.0 | 0.00 | 0.00 | 0.00 | 89 | 1012.1 |
| 20260906103022 | 25 | 231 | 0.0 | 0.0 | 0.00 | 0.00 | 0.00 | 88 | 1012.0 |
| 20260906101520 | 25 | 231 | 0.0 | 0.0 | 0.00 | 0.00 | 0.00 | 88 | 1012.0 |
| 20260906100017 | 25 | 231 | 0.0 | 0.0 | 0.00 | 0.00 | 0.00 | 88 | 1011.7 |
| 20260906094524 | 25 | 231 | 0.0 | 0.0 | 0.00 | 0.00 | 0.00 | 88 | 1011.7 |
| 20260906093030 | 25 | 231 | 0.0 | 0.0 | 0.00 | 0.00 | 0.00 | 87 | 1011.5 |
| 20260906091520 | 25 | 231 | 0.0 | 0.0 | 0.00 | 0.00 | 0.00 | 87 | 1011.4 |
| 20260906090022 | 26 | 231 | 0.0 | 0.0 | 0.00 | 0.00 | 0.00 | 86 | 1011.4 |
| 20260906084518 | 26 | 231 | 0.0 | 0.0 | 0.00 | 0.00 | 0.00 | 85 | 1011.4 |
| 20260906083024 | 26 | 231 | 0.0 | 0.0 | 0.00 | 0.00 | 0.00 | 85 | 1011.5 |
| 20260906081525 | 26 | 231 | 0.0 | 0.0 | 0.00 | 0.00 | 0.00 | 84 | 1011.5 |
| 20260906080020 | 26 | 231 | 0.0 | 0.0 | 0.00 | 0.00 | 0.00 | 83 | 1011.6 |
| 20260906074521 | 26 | 231 | 0.0 | 0.0 | 0.00 | 0.00 | 0.00 | 82 | 1011.6 |
| 20260906073021 | 27 | 231 | 0.0 | 0.0 | 0.00 | 0.00 | 0.00 | 81 | 1011.6 |
| 20260906071523 | 27 | 231 | 0.0 | 0.0 | 0.00 | 0.00 | 0.00 | 80 | 1011.6 |
| 20260906070022 | 27 | 231 | 0.0 | 1.6 | 0.00 | 0.00 | 0.00 | 79 | 1011.6 |
| 20260906064518 | 27 | 231 | 0.0 | 0.0 | 0.00 | 0.00 | 0.00 | 78 | 1011.7 |
| 20260906063020 | 27 | 231 | 0.0 | 3.2 | 0.00 | 0.00 | 0.00 | 78 | 1011.8 |
| 20260906061519 | 27 | 231 | 0.0 | 0.0 | 0.00 | 0.00 | 0.00 | 77 | 1011.9 |
| 20260906060023 | 28 | 231 | 0.0 | 3.2 | 0.00 | 0.00 | 0.00 | 77 | 1012.1 |
| 20260906054521 | 28 | 231 | 0.0 | 1.6 | 0.00 | 0.00 | 0.00 | 77 | 1012.1 |
| 20260906053022 | 28 | 231 | 0.0 | 3.2 | 0.00 | 0.00 | 0.00 | 77 | 1012.0 |
| 20260906051523 | 28 | 252 | 0.0 | 0.0 | 0.00 | 0.00 | 0.00 | 76 | 1011.7 |
| 20260906050020 | 28 | 252 | 0.0 | 0.0 | 0.00 | 0.00 | 0.00 | 75 | 1011.7 |
| 20260906044520 | 28 | 252 | 0.0 | 0.0 | 0.00 | 0.00 | 0.00 | 74 | 1011.6 |
| 20260906043022 | 28 | 252 | 0.0 | 0.0 | 0.00 | 0.00 | 0.00 | 74 | 1011.4 |
| 20260906041525 | 28 | 252 | 0.0 | 0.0 | 0.00 | 0.00 | 0.00 | 73 | 1011.7 |
| 20260906040022 | 29 | 252 | 0.0 | 0.0 | 0.00 | 0.00 | 0.00 | 72 | 1011.7 |
| 20260906034526 | 29 | 252 | 0.0 | 0.0 | 0.00 | 0.00 | 0.00 | 72 | 1011.7 |
| 20260906033020 | 29 | 252 | 0.0 | 0.0 | 0.00 | 0.00 | 0.00 | 71 | 1011.7 |
| 20260906031521 | 30 | 252 | 0.0 | 0.0 | 0.00 | 0.00 | 0.00 | 70 | 1011.8 |
| 20260906030020 | 30 | 251 | 0.0 | 0.0 | 0.00 | 0.00 | 0.00 | 69 | 1011.8 |
| 20260906024522 | 30 | 252 | 0.0 | 4.8 | 0.00 | 0.00 | 0.00 | 68 | 1011.8 |
| 20260906023023 | 30 | 77 | 0.0 | 0.0 | 0.00 | 0.00 | 0.00 | 66 | 1011.8 |
| 20260906021521 | 30 | 77 | 0.0 | 0.0 | 0.00 | 0.00 | 0.00 | 65 | 1011.4 |
| 20260906020023 | 31 | 77 | 0.0 | 0.0 | 0.00 | 0.00 | 0.00 | 64 | 1011.2 |
| 20260906014523 | 31 | 77 | 0.0 | 0.0 | 0.00 | 0.00 | 0.00 | 62 | 1011.0 |
| 20260906013020 | 32 | 77 | 0.0 | 0.0 | 0.00 | 0.00 | 0.00 | 60 | 1010.7 |
| 20260906011527 | 32 | 77 | 0.0 | 0.0 | 0.00 | 0.00 | 0.00 | 59 | 1010.6 |
| 20260906010022 | 32 | 77 | 0.0 | 0.0 | 0.00 | 0.00 | 0.00 | 58 | 1010.5 |
| 20260906004523 | 33 | 77 | 0.0 | 0.0 | 0.00 | 0.00 | 0.00 | 56 | 1010.4 |
| 20260906003022 | 34 | 77 | 0.0 | 0.0 | 0.00 | 0.00 | 0.00 | 53 | 1010.5 |
| 20260906001603 | 35 | 77 | 0.0 | 0.0 | 0.00 | 0.00 | 0.00 | 51 | 1010.5 |
| 20260906000024 | 35 | 121 | 0.0 | 0.0 | 0.00 | 0.00 | 0.00 | 50 | 1010.3 |
| 20260905234525 | 35 | 120 | 0.0 | 8.0 | 0.00 | 0.00 | 0.00 | 48 | 1010.5 |
| 20260905233008 | 36 | 127 | 0.0 | 6.4 | 0.00 | 0.00 | 0.00 | 48 | 1010.5 |
| 20260905231507 | 36 | 77 | 0.0 | 9.7 | 0.00 | 0.00 | 0.00 | 47 | 1010.3 |
| 20260905230005 | 36 | 94 | 1.6 | 8.0 | 0.00 | 0.00 | 0.00 | 47 | 1010.4 |
| 20260905224516 | 36 | 99 | 3.2 | 11.3 | 0.00 | 0.00 | 0.00 | 47 | 1010.4 |
| 20260905223008 | 36 | 51 | 3.2 | 8.0 | 0.00 | 0.00 | 0.00 | 48 | 1010.4 |
| 20260905221526 | 36 | 57 | 4.8 | 12.9 | 0.00 | 0.00 | 0.00 | 48 | 1010.5 |
| 20260905220008 | 36 | 120 | 0.0 | 8.0 | 0.00 | 0.00 | 0.00 | 49 | 1010.4 |
| 20260905214509 | 36 | 119 | 1.6 | 6.4 | 0.00 | 0.00 | 0.00 | 50 | 1010.6 |
| 20260905213011 | 36 | 105 | 0.0 | 6.4 | 0.00 | 0.00 | 0.00 | 50 | 1010.7 |
| 20260905211507 | 36 | 116 | 4.8 | 11.3 | 0.00 | 0.00 | 0.00 | 47 | 1010.8 |
| 20260905210009 | 37 | 65 | 9.7 | 17.7 | 0.00 | 0.00 | 0.00 | 46 | 1010.8 |
| 20260905204511 | 37 | 71 | 1.6 | 9.7 | 0.00 | 0.00 | 0.00 | 45 | 1010.9 |
| 20260905203011 | 36 | 108 | 0.0 | 8.0 | 0.00 | 0.00 | 0.00 | 48 | 1011.1 |
| 20260905201524 | 36 | 98 | 1.6 | 11.3 | 0.00 | 0.00 | 0.00 | 48 | 1011.5 |
| 20260905200014 | 37 | 126 | 4.8 | 12.9 | 0.00 | 0.00 | 0.00 | 45 | 1011.5 |
| 20260905194510 | 37 | 265 | 1.6 | 9.7 | 0.00 | 0.00 | 0.00 | 45 | 1011.7 |
| 20260905193013 | 37 | 104 | 3.2 | 11.3 | 0.00 | 0.00 | 0.00 | 47 | 1012.0 |
| 20260905191512 | 37 | 55 | 3.2 | 11.3 | 0.00 | 0.00 | 0.00 | 47 | 1012.2 |
| 20260905190013 | 37 | 124 | 3.2 | 9.7 | 0.00 | 0.00 | 0.00 | 47 | 1012.4 |
| 20260905184511 | 36 | 119 | 1.6 | 6.4 | 0.00 | 0.00 | 0.00 | 51 | 1012.6 |
| 20260905183011 | 36 | 80 | 3.2 | 12.9 | 0.00 | 0.00 | 0.00 | 50 | 1012.8 |
| 20260905181516 | 37 | 60 | 1.6 | 8.0 | 0.00 | 0.00 | 0.00 | 50 | 1012.9 |
| 20260905180014 | 36 | 123 | 4.8 | 11.3 | 0.00 | 0.00 | 0.00 | 51 | 1013.1 |
| 20260905174514 | 36 | 146 | 4.8 | 16.1 | 0.00 | 0.00 | 0.00 | 52 | 1013.2 |
| 20260905173025 | 36 | 58 | 3.2 | 9.7 | 0.00 | 0.00 | 0.00 | 53 | 1013.4 |
| 20260905171514 | 35 | 106 | 6.4 | 14.5 | 0.00 | 0.00 | 0.00 | 53 | 1013.5 |
| 20260905170012 | 35 | 103 | 1.6 | 11.3 | 0.00 | 0.00 | 0.00 | 55 | 1013.6 |
| 20260905164509 | 35 | 163 | 1.6 | 8.0 | 0.00 | 0.00 | 0.00 | 57 | 1013.8 |
| 20260905163028 | 35 | 113 | 4.8 | 12.9 | 0.00 | 0.00 | 0.00 | 56 | 1014.1 |
| 20260905161509 | 34 | 317 | 0.0 | 6.4 | 0.00 | 0.00 | 0.00 | 59 | 1014.1 |
| 20260905160029 | 33 | 86 | 0.0 | 4.8 | 0.00 | 0.00 | 0.00 | 61 | 1014.3 |
| 20260905154509 | 32 | 97 | 0.0 | 9.7 | 0.00 | 0.00 | 0.00 | 63 | 1014.4 |
| 20260905153007 | 32 | 117 | 0.0 | 6.4 | 0.00 | 0.00 | 0.00 | 66 | 1014.4 |
| 20260905151527 | 31 | 359 | 0.0 | 1.6 | 0.00 | 0.00 | 0.00 | 69 | 1014.4 |
| 20260905150010 | 31 | 15 | 0.0 | 1.6 | 0.00 | 0.00 | 0.00 | 70 | 1014.3 |
| 20260905144527 | 30 | 15 | 1.6 | 4.8 | 0.00 | 0.00 | 0.00 | 71 | 1014.2 |
| 20260905143030 | 30 | 295 | 0.0 | 1.6 | 0.00 | 0.00 | 0.00 | 74 | 1014.3 |
| 20260905141528 | 29 | 297 | 0.0 | 3.2 | 0.00 | 0.00 | 0.00 | 75 | 1014.4 |
| 20260905140021 | 28 | 293 | 0.0 | 3.2 | 0.00 | 0.00 | 0.00 | 77 | 1014.1 |
| 20260905134523 | 27 | 184 | 0.0 | 3.2 | 0.00 | 0.00 | 0.00 | 81 | 1014.3 |
| 20260905133022 | 27 | 167 | 0.0 | 3.2 | 0.00 | 0.00 | 0.00 | 82 | 1014.4 |